Latest Weather Observations for Pearce

IDW60801

Issued at 5:04 am WST Wednesday 25 January 2017 (issued every 30 minutes, with the page automatically refreshed every 10 minutes)

About weather observations | Map of weather stations | Latest weather observations for WA | Other Formats
Station Details ID: 009053 Name: PEARCE RAAF Lat: -31.67 Lon: 116.02 Height: 40.0 m
Data from the previous 72 hours. | See also: Recent months at Pearce
Date/Time
WST
Temp
°C
App
Temp
°C
Dew
Point
°C
Rel
Hum
%
Delta-T
°C
Wind Press
QNH
hPa
Press
MSL
hPa
Rain since
9am
mm
Dir  Spd
km/h
Gust
km/h
Spd
kts
Gust
kts
25/05:00am 21.9 18.5 5.8 35 8.1 SE 13 22 7 12 1016.0 1015.7 -
25/04:30am 21.5 18.1 4.1 32 8.4 SE 11 15 6 8 1015.9 1015.6 -
25/04:00am 23.3 19.1 3.8 28 9.5 E 15 20 8 11 1015.4 1015.1 -
25/03:30am 23.9 18.6 3.2 26 10.0 E 20 30 11 16 1015.1 1014.8 -
25/03:00am 24.3 19.6 3.0 25 10.3 E 17 30 9 16 1015.2 1014.9 0.0
25/02:30am 23.8 20.6 3.2 26 10.0 ENE 9 17 5 9 1015.2 1014.9 -
25/02:09am 23.3 20.1 5.2 31 9.1 SSE 11 22 6 12 1015.3 1015.0 -
25/02:00am 17.3 17.5 10.4 64 3.7 CALM 0 7 0 4 1015.4 1015.1 -
25/01:30am 16.2 15.2 10.9 71 2.8 NW 7 9 4 5 1015.4 1015.1 -
25/01:00am 17.8 18.2 11.1 65 3.6 CALM 0 0 0 0 1015.8 1015.5 -
25/12:30am 19.0 19.4 11.3 61 4.2 CALM 0 0 0 0 1016.0 1015.7 -
25/12:00am 19.6 19.1 11.9 61 4.3 SE 6 9 3 5 1016.1 1015.8 -
 
Date/Time
WST
Temp
°C
App
Temp
°C
Dew
Point
°C
Rel
Hum
%
Delta-T
°C
Wind Press
QNH
hPa
Press
MSL
hPa
Rain since
9am
mm
Dir  Spd
km/h
Gust
km/h
Spd
kts
Gust
kts
24/11:30pm 19.1 17.5 11.4 61 4.2 S 11 13 6 7 1016.1 1015.8 -
24/11:00pm 19.9 18.0 11.7 59 4.5 S 13 17 7 9 1016.2 1015.9 -
24/10:30pm 20.6 17.4 11.2 55 5.2 S 19 20 10 11 1016.3 1016.0 -
24/10:00pm 21.3 19.0 11.6 54 5.4 S 15 20 8 11 1016.3 1016.0 -
24/09:30pm 22.5 19.6 12.2 52 5.8 S 19 24 10 13 1016.3 1016.0 -
24/09:00pm 22.4 19.7 11.8 51 6.0 S 17 22 9 12 1016.2 1015.9 0.0
24/08:30pm 23.8 22.0 12.1 48 6.7 SSW 13 19 7 10 1016.1 1015.8 -
24/08:00pm 24.1 22.2 11.8 46 7.0 SSW 13 19 7 10 1015.7 1015.4 -
24/07:30pm 24.9 22.5 11.5 43 7.6 SW 15 19 8 10 1015.3 1015.0 -
24/07:00pm 26.7 22.8 10.8 37 9.0 SSW 22 28 12 15 1015.0 1014.7 -
24/06:30pm 28.3 23.3 9.6 31 10.4 SSW 26 32 14 17 1014.5 1014.2 -
24/06:00pm 29.7 24.6 9.3 28 11.4 SSW 26 35 14 19 1014.2 1013.9 -
24/05:30pm 30.6 24.7 8.9 26 12.1 S 30 37 16 20 1014.0 1013.7 -
24/05:00pm 31.8 27.1 9.3 25 12.7 SSW 24 35 13 19 1013.7 1013.4 -
24/04:30pm 33.0 28.0 9.7 24 13.3 SW 26 32 14 17 1013.6 1013.3 -
24/04:00pm 34.2 31.3 4.8 16 15.6 E 9 17 5 9 1013.8 1013.5 -
24/03:30pm 34.7 32.1 6.1 17 15.6 ENE 9 17 5 9 1013.9 1013.6 -
24/03:00pm 33.4 30.9 5.0 17 15.1 ESE 7 13 4 7 1014.2 1013.9 -
24/02:30pm 33.7 30.0 6.1 18 15.0 E 15 22 8 12 1014.7 1014.4 -
24/02:00pm 32.5 29.5 5.9 19 14.3 ESE 11 26 6 14 1014.9 1014.6 -
24/01:30pm 32.4 29.5 6.6 20 14.0 ESE 11 20 6 11 1015.3 1015.0 -
24/01:00pm 32.5 29.4 7.4 21 13.8 ESE 13 24 7 13 1015.6 1015.3 -
24/12:30pm 30.4 27.6 7.0 23 12.6 E 11 22 6 12 1016.1 1015.8 -
24/12:00pm 30.7 27.1 8.4 25 12.3 ESE 17 33 9 18 1016.3 1016.0 -
24/11:30am 28.8 24.7 8.5 28 11.2 ENE 20 30 11 16 1016.7 1016.4 -
24/11:00am 28.2 24.0 7.4 27 11.2 ENE 19 30 10 16 1017.0 1016.7 0.0
24/10:30am 26.5 21.9 8.0 31 10.0 E 22 33 12 18 1017.2 1016.9 0.0
24/10:00am 25.4 20.8 8.0 33 9.3 E 22 35 12 19 1017.5 1017.2 0.0
24/09:30am 24.6 19.7 8.5 36 8.6 E 24 37 13 20 1017.6 1017.3 0.0
24/09:00am 23.0 17.3 8.3 39 7.8 E 28 48 15 26 1017.6 1017.3 0.0
24/08:56am 22.9 16.9 8.6 40 7.6 E 30 48 16 26 1017.5 1017.2 0.0
24/08:30am 21.7 15.0 8.2 42 7.1 E 33 48 18 26 1017.5 1017.2 0.0
24/08:00am 20.3 13.6 8.0 45 6.4 E 33 50 18 27 1017.6 1017.3 0.0
24/07:45am 19.7 13.0 8.1 47 6.0 E 33 52 18 28 1017.6 1017.3 0.0
24/07:30am 19.0 12.9 8.4 50 5.5 E 30 43 16 23 1017.7 1017.4 0.0
24/07:00am 17.4 10.7 8.0 54 4.8 E 33 48 18 26 1017.6 1017.3 0.0
24/06:30am 16.8 10.3 8.0 56 4.5 E 32 50 17 27 1017.4 1017.1 0.0
24/06:00am 16.4 11.8 8.1 58 4.2 E 22 37 12 20 1017.1 1016.8 0.0
24/05:30am 16.5 11.5 8.0 57 4.3 ESE 24 35 13 19 1016.9 1016.6 0.0
24/05:00am 16.8 11.8 8.2 57 4.4 ESE 24 35 13 19 1016.8 1016.5 0.0
24/04:30am 17.3 11.6 8.2 55 4.7 E 28 46 15 25 1016.5 1016.2 0.0
24/04:28am 17.2 11.4 8.1 55 4.6 E 28 46 15 25 1016.4 1016.1 0.0
24/04:00am 17.4 13.1 8.0 54 4.8 E 20 32 11 17 1016.4 1016.1 0.0
24/03:30am 17.8 13.6 8.4 54 4.8 E 20 30 11 16 1016.4 1016.1 0.0
24/03:00am 16.7 14.6 9.9 64 3.6 SSE 11 28 6 15 1016.5 1016.2 0.0
24/02:30am 12.1 12.1 9.7 85 1.2 CALM 0 0 0 0 1016.6 1016.3 0.0
24/02:00am 11.8 11.6 9.0 83 1.4 CALM 0 0 0 0 1016.7 1016.4 0.0
24/01:30am 13.4 12.5 10.6 83 1.5 S 6 9 3 5 1016.7 1016.4 0.0
24/01:00am 13.2 13.3 10.0 81 1.6 CALM 0 0 0 0 1016.9 1016.6 0.0
24/12:30am 14.4 14.6 10.4 77 2.1 CALM 0 0 0 0 1017.0 1016.7 0.0
24/12:00am 15.5 15.9 11.3 76 2.3 CALM 0 4 0 2 1017.2 1016.9 0.0
 
Date/Time
WST
Temp
°C
App
Temp
°C
Dew
Point
°C
Rel
Hum
%
Delta-T
°C
Wind Press
QNH
hPa
Press
MSL
hPa
Rain since
9am
mm
Dir  Spd
km/h
Gust
km/h
Spd
kts
Gust
kts
23/11:30pm 16.3 15.4 11.5 73 2.6 S 7 9 4 5 1017.3 1017.0 0.0
23/11:00pm 16.3 15.4 11.5 73 2.6 S 7 9 4 5 1017.5 1017.2 0.0
23/10:30pm 16.3 15.0 11.2 72 2.7 S 9 13 5 7 1017.5 1017.2 0.0
23/10:00pm 16.8 14.4 11.3 70 3.0 S 15 17 8 9 1017.7 1017.4 0.0
23/09:30pm 17.6 14.8 11.4 67 3.4 SSW 17 20 9 11 1017.6 1017.3 0.0
23/09:00pm 18.0 15.1 10.9 63 3.8 S 17 26 9 14 1017.4 1017.1 0.0
23/08:30pm 18.5 14.8 10.3 59 4.4 SSW 20 28 11 15 1017.0 1016.7 0.0
23/08:00pm 18.7 15.6 11.5 63 3.9 SSW 19 24 10 13 1016.6 1016.3 0.0
23/07:30pm 19.3 15.5 11.3 60 4.4 SSW 22 28 12 15 1016.3 1016.0 0.0
23/07:00pm 20.4 15.8 11.1 55 5.1 SW 26 32 14 17 1015.9 1015.6 0.0
23/06:30pm 21.7 16.7 10.8 50 6.0 SW 28 35 15 19 1015.4 1015.1 0.0
23/06:00pm 22.7 17.6 10.5 46 6.7 SW 28 37 15 20 1015.0 1014.7 0.0
23/05:30pm 24.0 19.0 11.0 44 7.3 SSW 28 37 15 20 1014.7 1014.4 0.0
23/05:00pm 24.1 18.9 10.4 42 7.6 SSW 28 37 15 20 1014.8 1014.5 0.0
23/04:30pm 25.8 20.4 10.8 39 8.4 SSW 30 44 16 24 1014.7 1014.4 0.0
23/04:00pm 25.8 19.9 10.4 38 8.6 SSW 32 39 17 21 1014.7 1014.4 0.0
23/03:30pm 25.9 20.7 10.1 37 8.8 SSW 28 39 15 21 1014.7 1014.4 0.0
23/03:00pm 26.5 22.0 10.2 36 9.1 SSW 24 37 13 20 1014.8 1014.5 0.0
23/02:30pm 26.5 22.0 10.2 36 9.1 SW 24 35 13 19 1014.9 1014.6 0.0
23/02:00pm 26.5 22.2 9.4 34 9.4 SSW 22 35 12 19 1015.1 1014.8 0.0
23/01:30pm 26.0 20.7 8.5 33 9.5 SSW 26 37 14 20 1015.3 1015.0 0.0
23/01:00pm 25.2 21.1 8.7 35 8.9 SSW 20 33 11 18 1015.6 1015.3 0.0
23/12:30pm 25.1 20.4 9.4 37 8.6 S 24 35 13 19 1015.7 1015.4 0.0
23/12:00pm 24.6 20.3 9.3 38 8.3 SSW 22 33 12 18 1015.9 1015.6 0.0
23/11:30am 23.6 18.9 9.2 40 7.8 SSW 24 33 13 18 1016.3 1016.0 0.0
23/11:00am 23.4 18.2 9.0 40 7.7 S 26 32 14 17 1016.4 1016.1 0.0
23/10:30am 22.4 18.4 8.9 42 7.2 SSW 20 32 11 17 1016.4 1016.1 0.0
23/10:00am 21.8 18.0 9.0 44 6.8 S 19 28 10 15 1016.6 1016.3 0.0
23/09:30am 21.7 18.0 9.6 46 6.5 SSE 19 28 10 15 1016.7 1016.4 0.0
23/09:00am 20.2 15.9 9.2 49 5.8 S 22 28 12 15 1016.8 1016.5 0.0
23/08:30am 19.9 16.3 10.0 53 5.3 S 19 24 10 13 1017.0 1016.7 0.0
23/08:00am 18.9 16.4 9.7 55 4.9 SSE 13 19 7 10 1017.1 1016.8 0.0
23/07:30am 17.7 17.4 11.3 66 3.5 SSE 4 9 2 5 1017.0 1016.7 0.0
23/07:08am 14.2 14.3 11.5 84 1.4 SSE 2 6 1 3 1016.8 1016.5 0.0
23/07:00am 13.4 13.1 11.3 87 1.1 SSE 4 6 2 3 1016.7 1016.4 0.0
23/06:30am 11.0 10.8 9.1 88 0.9 CALM 0 0 0 0 1016.3 1016.0 0.0
23/06:00am 11.3 11.2 9.4 88 1.0 CALM 0 0 0 0 1015.8 1015.5 0.0
23/05:30am 10.6 10.4 9.2 91 0.7 CALM 0 0 0 0 1015.5 1015.2 0.0
23/05:00am 9.2 8.5 7.0 86 1.0 CALM 0 0 0 0 1015.0 1014.7 0.0
23/04:30am 9.5 8.9 7.3 86 1.0 CALM 0 0 0 0 1014.7 1014.4 0.0
23/04:00am 13.0 13.2 10.4 84 1.4 CALM 0 0 0 0 1014.5 1014.2 0.0
23/03:30am 12.0 11.9 9.6 85 1.2 CALM 0 0 0 0 1014.3 1014.0 0.0
23/03:00am 12.3 10.8 8.4 77 1.9 SSE 6 7 3 4 1014.2 1013.9 0.0
23/02:30am 14.8 13.5 11.2 79 1.9 SSE 9 13 5 7 1014.2 1013.9 0.0
23/02:00am 14.8 13.7 10.8 77 2.1 SSE 7 11 4 6 1014.3 1014.0 0.0
23/01:30am 15.2 13.8 11.0 76 2.2 SSE 9 11 5 6 1014.2 1013.9 0.0
23/01:00am 14.6 13.0 10.2 75 2.3 S 9 11 5 6 1014.0 1013.7 0.0
23/12:30am 15.0 13.9 10.6 75 2.3 S 7 11 4 6 1014.0 1013.7 0.0
23/12:00am 15.5 13.7 10.9 74 2.5 S 11 15 6 8 1013.7 1013.4 0.0
 
Date/Time
WST
Temp
°C
App
Temp
°C
Dew
Point
°C
Rel
Hum
%
Delta-T
°C
Wind Press
QNH
hPa
Press
MSL
hPa
Rain since
9am
mm
Dir  Spd
km/h
Gust
km/h
Spd
kts
Gust
kts
22/11:30pm 15.6 13.4 10.8 73 2.6 SSW 13 15 7 8 1013.7 1013.4 0.0
22/11:00pm 16.6 14.2 11.5 72 2.8 SSW 15 20 8 11 1013.7 1013.4 0.0
22/10:30pm 16.3 14.0 11.7 74 2.5 SSW 15 19 8 10 1013.9 1013.6 0.0
22/10:00pm 17.2 14.6 11.9 71 2.9 SSW 17 20 9 11 1013.9 1013.6 0.0
22/09:30pm 17.2 14.8 11.5 69 3.1 SSW 15 19 8 10 1013.7 1013.4 0.0
22/09:00pm 17.9 14.8 11.7 67 3.4 SSW 19 28 10 15 1013.4 1013.1 0.0
22/08:30pm 18.1 14.5 11.7 66 3.5 SW 22 30 12 16 1013.1 1012.8 0.0
22/08:00pm 18.4 15.3 11.5 64 3.8 SW 19 24 10 13 1012.8 1012.5 0.0
22/07:30pm 18.9 14.0 11.2 61 4.2 SW 28 37 15 20 1012.5 1012.2 0.0
22/07:00pm 19.6 15.3 12.1 62 4.2 SW 26 39 14 21 1012.1 1011.8 0.0
22/06:30pm 20.8 16.4 11.7 56 5.1 SW 26 39 14 21 1011.7 1011.4 0.0
22/06:00pm 20.8 15.0 11.4 55 5.2 SW 33 44 18 24 1011.3 1011.0 0.0
22/05:30pm 22.1 16.4 11.8 52 5.8 SW 33 44 18 24 1010.8 1010.5 0.0
22/05:00pm 22.7 17.0 11.7 49 6.2 SW 33 44 18 24 1010.5 1010.2 0.0
22/04:30pm 23.5 18.1 10.9 45 7.0 SW 30 41 16 22 1010.3 1010.0 0.0
22/04:00pm 23.5 17.6 10.6 44 7.2 SW 32 41 17 22 1010.3 1010.0 0.0
22/03:30pm 24.3 17.9 9.5 39 8.1 SW 33 41 18 22 1010.3 1010.0 0.0
22/03:00pm 24.9 19.0 10.4 40 8.1 SW 32 44 17 24 1010.4 1010.1 0.0
22/02:37pm 25.5 20.5 10.9 40 8.2 SW 28 46 15 25 1010.5 1010.2 0.0
22/02:30pm 25.3 19.6 11.1 41 8.0 SW 32 46 17 25 1010.7 1010.4 0.0
22/02:00pm 24.8 19.1 11.7 44 7.5 SSW 33 44 18 24 1010.6 1010.3 0.0
22/01:30pm 25.5 20.3 12.7 45 7.4 SW 32 41 17 22 1010.5 1010.2 0.0
22/01:00pm 25.3 20.5 12.9 46 7.2 SW 30 41 16 22 1010.4 1010.1 0.0
22/12:49pm 26.3 21.2 13.1 44 7.7 SW 32 50 17 27 1010.3 1010.0 0.0
22/12:30pm 26.5 22.2 13.3 44 7.8 SW 28 39 15 21 1010.3 1010.0 0.0
22/12:00pm 25.9 21.2 13.1 45 7.5 SSW 30 39 16 21 1010.3 1010.0 0.0
22/11:30am 25.9 21.6 13.1 45 7.5 SSW 28 39 15 21 1010.0 1009.7 0.0
22/11:00am 25.6 21.8 13.5 47 7.1 SSW 26 33 14 18 1010.0 1009.7 0.0
22/10:30am 25.1 21.7 13.6 49 6.8 SSW 24 33 13 18 1010.1 1009.8 0.0
22/10:00am 24.4 21.2 14.2 53 6.0 SSW 24 33 13 18 1010.3 1010.0 0.0
22/09:30am 23.4 20.0 13.8 54 5.6 SSW 24 32 13 17 1010.2 1009.9 0.0
22/09:00am 22.3 18.1 13.6 58 5.1 SSW 28 35 15 19 1010.1 1009.8 0.0
22/08:30am 20.8 15.6 13.3 62 4.3 SSW 33 43 18 23 1010.3 1010.0 0.0
22/08:00am 20.4 15.5 13.6 65 3.9 S 32 43 17 23 1010.2 1009.9 0.0
22/07:30am 19.2 15.8 13.8 71 3.1 S 24 30 13 16 1010.0 1009.7 0.0
22/07:00am 17.6 14.9 13.5 77 2.3 S 20 30 11 16 1009.8 1009.5 0.0
22/06:30am 16.3 14.1 13.2 82 1.7 S 17 22 9 12 1009.4 1009.1 0.0
22/06:00am 15.7 13.1 13.2 85 1.4 S 19 24 10 13 1009.1 1008.8 0.0
22/05:30am 15.8 13.2 13.3 85 1.4 S 19 28 10 15 1008.8 1008.5 0.0

Other Formats:

Comma delimited format used in spreadsheet applications
http://www.bom.gov.au/fwo/IDW60801/IDW60801.94612.axf

JavaScript Object Notation format (JSON) in row-major order
http://www.bom.gov.au/fwo/IDW60801/IDW60801.94612.json